Time;durP1;ratioP1;P1;durP2;ratioP2;P2;SDS_P1;SDS_P2;PMS_P1;PMS_P2;Temp;Humidity;BMP_temperature;BMP_pressure;BME280_temperature;BME280_humidity;BME280_pressure;Samples;Min_cycle;Max_cycle;Signal;HPM_P1;HPM_P2
2024/01/28 00:01:36;;;;;;;6.35;3.70;;;;;;;18.30;36.80;103163.97;4969621;28;20117;-69
2024/01/28 00:04:02;;;;;;;8.98;3.88;;;;;;;18.28;36.97;103168.47;4967224;28;20177;-71
2024/01/28 00:06:27;;;;;;;8.13;3.92;;;;;;;18.29;36.56;103167.53;4969750;28;20031;-71
2024/01/28 00:08:52;;;;;;;7.10;3.95;;;;;;;18.36;36.87;103174.25;4968427;28;20043;-71
2024/01/28 00:11:17;;;;;;;6.53;3.77;;;;;;;18.29;36.94;103160.47;4969086;28;20027;-70
2024/01/28 00:13:43;;;;;;;7.03;3.90;;;;;;;18.22;36.71;103145.81;4969847;28;20622;-71
2024/01/28 00:16:26;;;;;;;7.25;3.70;;;;;;;18.30;36.88;103164.81;4969392;28;20022;-71
2024/01/28 00:18:57;;;;;;;7.03;3.75;;;;;;;18.27;36.76;103151.75;4969797;28;20098;-69
2024/01/28 00:21:23;;;;;;;6.20;3.38;;;;;;;18.25;37.06;103152.75;4969758;28;20108;-69
2024/01/28 00:23:49;;;;;;;7.28;3.33;;;;;;;18.23;36.84;103147.56;4969451;28;20070;-70
2024/01/28 00:26:14;;;;;;;6.82;4.05;;;;;;;18.23;36.88;103144.03;4969206;28;20121;-68
2024/01/28 00:28:39;;;;;;;7.57;3.85;;;;;;;18.12;36.90;103131.34;4969297;28;20026;-70
2024/01/28 00:31:09;;;;;;;6.03;3.28;;;;;;;18.22;37.01;103139.72;4969338;28;20027;-69
2024/01/28 00:33:34;;;;;;;6.90;3.78;;;;;;;18.19;36.92;103142.47;4969494;28;20026;-68
2024/01/28 00:35:59;;;;;;;7.07;3.78;;;;;;;18.16;36.96;103138.19;4969193;28;20062;-68
2024/01/28 00:38:31;;;;;;;9.18;3.75;;;;;;;18.17;37.15;103150.47;4968910;28;20430;-69
2024/01/28 00:40:56;;;;;;;6.65;3.33;;;;;;;18.13;37.23;103143.59;4968407;28;20030;-68
2024/01/28 00:43:21;;;;;;;6.63;3.80;;;;;;;18.14;37.05;103147.97;4968961;28;20388;-70
2024/01/28 00:45:46;;;;;;;6.35;3.42;;;;;;;18.05;37.03;103130.75;4968714;28;20062;-70
2024/01/28 00:48:12;;;;;;;7.63;3.67;;;;;;;18.13;37.09;103143.59;4968940;28;20476;-69
2024/01/28 00:50:37;;;;;;;6.40;3.28;;;;;;;18.08;37.11;103130.59;4968925;28;20292;-69
2024/01/28 00:53:02;;;;;;;7.57;3.90;;;;;;;17.99;37.22;103115.22;4968882;28;20030;-71
2024/01/28 00:55:28;;;;;;;6.95;3.90;;;;;;;18.09;37.14;103131.50;4968552;28;20265;-71
2024/01/28 00:57:54;;;;;;;7.25;4.03;;;;;;;18.04;37.08;103122.91;4968558;28;20034;-72
2024/01/28 01:00:19;;;;;;;7.38;3.58;;;;;;;18.05;37.17;103125.47;4968429;28;20555;-70
2024/01/28 01:02:44;;;;;;;7.25;3.72;;;;;;;17.90;37.31;103091.88;4966336;28;20035;-71
2024/01/28 01:05:10;;;;;;;6.30;3.50;;;;;;;18.03;37.24;103119.41;4968365;28;20110;-69
2024/01/28 01:07:35;;;;;;;6.72;3.97;;;;;;;17.99;37.09;103109.94;4968483;28;20101;-69
2024/01/28 01:10:00;;;;;;;6.47;3.60;;;;;;;17.98;37.71;103105.56;4967040;28;20069;-70
2024/01/28 01:12:26;;;;;;;6.53;3.30;;;;;;;17.98;37.64;103100.31;4968368;28;20039;-70
2024/01/28 01:14:51;;;;;;;8.93;3.55;;;;;;;17.86;37.58;103085.81;4968513;28;20476;-69
2024/01/28 01:17:16;;;;;;;7.60;3.53;;;;;;;17.97;37.76;103103.84;4968509;28;20467;-70
2024/01/28 01:19:41;;;;;;;5.90;3.40;;;;;;;17.85;37.56;103075.34;4968564;28;20034;-69
2024/01/28 01:22:07;;;;;;;6.57;3.35;;;;;;;17.88;37.71;103088.44;4967991;28;20031;-70
2024/01/28 01:24:32;;;;;;;5.93;3.20;;;;;;;17.84;37.52;103087.69;4968490;28;20035;-70
2024/01/28 01:26:57;;;;;;;5.90;3.38;;;;;;;17.84;37.73;103081.56;4968193;28;20069;-69
2024/01/28 01:29:23;;;;;;;7.80;3.63;;;;;;;17.93;37.75;103097.03;4968380;28;20034;-70
2024/01/28 01:31:48;;;;;;;8.85;3.58;;;;;;;17.95;37.38;103103.06;4968107;28;20065;-69
2024/01/28 01:34:14;;;;;;;6.07;3.33;;;;;;;17.79;37.25;103068.59;4968493;28;20034;-70
2024/01/28 01:36:43;;;;;;;6.80;3.28;;;;;;;17.84;37.32;103081.56;4968040;28;20050;-69
2024/01/28 01:39:09;;;;;;;5.65;3.25;;;;;;;17.89;37.40;103093.63;4968120;28;20038;-69
2024/01/28 01:41:34;;;;;;;6.35;3.28;;;;;;;17.78;37.13;103074.78;4968382;28;20483;-70
2024/01/28 01:44:00;;;;;;;5.82;3.53;;;;;;;17.77;37.46;103081.00;4968045;28;20468;-71
2024/01/28 01:46:26;;;;;;;6.60;3.53;;;;;;;17.75;37.02;103078.41;4968049;28;20062;-69
2024/01/28 01:48:52;;;;;;;7.90;3.60;;;;;;;17.74;37.29;103083.75;4968279;28;20073;-68
2024/01/28 01:51:17;;;;;;;7.57;3.55;;;;;;;17.84;37.24;103097.41;4968202;28;20030;-70
2024/01/28 01:53:43;;;;;;;5.95;3.50;;;;;;;17.74;36.90;103084.59;4967909;28;20395;-70
2024/01/28 01:56:09;;;;;;;6.07;3.35;;;;;;;17.81;36.81;103105.44;4964000;28;20472;-70
2024/01/28 01:58:35;;;;;;;6.57;3.50;;;;;;;17.82;36.90;103105.38;4968435;28;20042;-69
2024/01/28 02:01:01;;;;;;;6.40;3.40;;;;;;;17.85;37.02;103114.91;4967612;28;21419;-68
2024/01/28 02:03:29;;;;;;;5.53;3.03;;;;;;;17.83;36.59;103104.47;4966442;28;20031;-68
2024/01/28 02:05:54;;;;;;;6.22;3.45;;;;;;;17.82;36.58;103099.25;4967598;28;20035;-69
2024/01/28 02:08:20;;;;;;;7.30;3.47;;;;;;;17.81;36.63;103102.81;4966439;28;20030;-70
2024/01/28 02:10:46;;;;;;;6.63;3.58;;;;;;;17.69;36.59;103083.97;4967701;28;20042;-70
2024/01/28 02:13:11;;;;;;;6.82;3.90;;;;;;;17.72;36.71;103086.47;4967814;28;20038;-69
2024/01/28 02:15:38;;;;;;;6.68;3.50;;;;;;;17.74;36.76;103079.34;4967709;28;20031;-70
2024/01/28 02:18:04;;;;;;;6.03;3.33;;;;;;;17.65;36.79;103061.28;4966448;28;20101;-69
2024/01/28 02:20:29;;;;;;;6.82;3.58;;;;;;;17.75;36.18;103081.06;4967592;28;20035;-70
2024/01/28 02:22:55;;;;;;;5.63;3.47;;;;;;;17.65;36.52;103058.63;4967943;28;20057;-69
2024/01/28 02:25:21;;;;;;;6.90;3.35;;;;;;;17.74;36.31;103075.84;4967641;28;20094;-70
2024/01/28 02:27:46;;;;;;;7.30;3.47;;;;;;;17.65;36.23;103056.00;4967391;28;20058;-68
2024/01/28 02:30:12;;;;;;;5.75;3.40;;;;;;;17.73;36.14;103067.06;4966691;28;20657;-70
2024/01/28 02:32:49;;;;;;;6.80;3.30;;;;;;;17.64;36.33;103046.41;4967545;28;20062;-68
2024/01/28 02:35:15;;;;;;;5.82;3.08;;;;;;;17.71;36.21;103057.53;4966972;28;20488;-69
2024/01/28 02:37:40;;;;;;;5.20;3.20;;;;;;;17.59;36.19;103030.78;4967464;28;20511;-70
2024/01/28 02:40:06;;;;;;;6.30;3.50;;;;;;;17.71;36.13;103049.63;4967431;28;20027;-69
2024/01/28 02:42:31;;;;;;;6.63;3.60;;;;;;;17.68;36.18;103042.69;4967515;28;20097;-69
2024/01/28 02:44:58;;;;;;;7.32;3.08;;;;;;;17.58;36.06;103026.41;4967577;28;20128;-68
2024/01/28 02:47:23;;;;;;;7.93;3.78;;;;;;;17.64;35.94;103032.34;4967379;28;20030;-71
2024/01/28 02:49:49;;;;;;;6.95;3.80;;;;;;;17.67;36.05;103042.75;4967398;28;20049;-68
2024/01/28 02:52:14;;;;;;;6.78;3.60;;;;;;;17.66;35.84;103041.91;4967312;28;20137;-68
2024/01/28 02:54:40;;;;;;;7.28;3.20;;;;;;;17.65;35.76;103042.81;4967519;28;20049;-70
2024/01/28 02:57:06;;;;;;;7.00;3.80;;;;;;;17.62;35.98;103032.41;4967248;28;20101;-68
2024/01/28 02:59:31;;;;;;;6.30;3.40;;;;;;;17.53;35.92;103017.00;4966178;28;20090;-70
2024/01/28 03:01:57;;;;;;;6.38;3.40;;;;;;;17.53;35.81;103020.50;4965308;28;20118;-70
2024/01/28 03:04:22;;;;;;;5.75;3.78;;;;;;;17.64;35.58;103042.88;4966814;28;20034;-69
2024/01/28 03:06:47;;;;;;;7.18;3.90;;;;;;;17.50;35.70;103027.66;4967689;28;20035;-68
2024/01/28 03:09:13;;;;;;;5.95;3.53;;;;;;;17.48;35.69;103017.22;4970566;28;20057;-70
2024/01/28 03:11:39;;;;;;;6.90;3.60;;;;;;;17.57;35.66;103022.06;4970614;28;20038;-68
2024/01/28 03:14:06;;;;;;;7.35;3.97;;;;;;;17.52;35.75;103018.78;4970916;28;20042;-70
2024/01/28 03:16:32;;;;;;;7.55;3.97;;;;;;;17.55;35.68;103021.28;4970864;28;20397;-69
2024/01/28 03:18:58;;;;;;;6.15;3.63;;;;;;;17.57;36.05;103021.22;4970770;28;20050;-68
2024/01/28 03:21:23;;;;;;;7.15;3.67;;;;;;;17.53;35.98;103009.97;4970681;28;20031;-70
2024/01/28 03:23:48;;;;;;;8.32;3.63;;;;;;;17.44;36.00;102991.91;4970723;28;20026;-69
2024/01/28 03:26:14;;;;;;;9.10;4.30;;;;;;;17.52;36.37;103007.38;4970316;28;20117;-69
2024/01/28 03:28:39;;;;;;;6.00;3.47;;;;;;;17.59;36.41;103019.34;4970499;28;20038;-69
2024/01/28 03:31:04;;;;;;;7.70;3.60;;;;;;;17.53;36.44;103015.22;4969829;28;20054;-70
2024/01/28 03:33:30;;;;;;;6.57;3.40;;;;;;;17.55;36.12;103010.72;4970381;28;20268;-69
2024/01/28 03:35:56;;;;;;;6.82;3.72;;;;;;;17.51;36.50;103008.31;4970066;28;20494;-70
2024/01/28 03:38:21;;;;;;;6.45;3.72;;;;;;;17.43;36.20;103000.72;4970316;28;20027;-69
2024/01/28 03:40:46;;;;;;;8.70;3.65;;;;;;;17.51;36.28;103013.56;4970089;28;20034;-69
2024/01/28 03:43:13;;;;;;;6.32;3.40;;;;;;;17.52;36.18;103007.38;4969581;28;20782;-68
2024/01/28 03:45:38;;;;;;;6.38;3.53;;;;;;;17.43;36.36;102998.09;4969085;28;20487;-70
2024/01/28 03:48:04;;;;;;;7.07;3.90;;;;;;;17.52;36.31;103020.56;4968740;28;20158;-69
2024/01/28 03:50:30;;;;;;;6.65;3.35;;;;;;;17.40;36.44;102998.22;4968906;28;20480;-70
2024/01/28 03:52:55;;;;;;;6.70;3.60;;;;;;;17.40;36.62;102995.59;4968964;28;20463;-68
2024/01/28 03:55:21;;;;;;;6.13;3.42;;;;;;;17.46;36.76;102994.47;4969238;28;20089;-70
2024/01/28 03:57:46;;;;;;;7.43;3.60;;;;;;;17.38;36.84;102985.13;4970280;28;20109;-68
2024/01/28 04:00:12;;;;;;;8.10;3.60;;;;;;;17.33;36.72;102970.44;4969984;28;20468;-70
2024/01/28 04:02:41;;;;;;;6.38;3.47;;;;;;;17.34;36.73;102982.69;4968225;28;20118;-69
2024/01/28 04:05:07;;;;;;;5.72;3.30;;;;;;;17.36;36.89;102986.13;4969448;28;20038;-70
2024/01/28 04:07:32;;;;;;;6.53;3.30;;;;;;;17.34;36.94;102991.47;4969483;28;20479;-70
2024/01/28 04:09:57;;;;;;;6.95;3.40;;;;;;;17.47;36.48;103009.38;4970007;28;20034;-71
2024/01/28 04:12:23;;;;;;;6.45;3.40;;;;;;;17.32;36.87;102995.97;4969023;28;20034;-71
2024/01/28 04:14:48;;;;;;;6.93;3.60;;;;;;;17.41;36.55;103008.69;4969742;28;20058;-69
2024/01/28 04:17:14;;;;;;;5.75;3.50;;;;;;;17.44;36.53;103012.16;4969487;28;20031;-70
2024/01/28 04:19:39;;;;;;;6.50;3.63;;;;;;;17.44;36.41;103004.25;4968498;28;20510;-71
2024/01/28 04:22:04;;;;;;;7.40;3.40;;;;;;;17.29;36.58;102977.63;4969549;28;20022;-69
2024/01/28 04:24:30;;;;;;;6.57;3.60;;;;;;;17.43;36.73;102998.09;4969262;28;20031;-70
2024/01/28 04:26:55;;;;;;;6.68;3.28;;;;;;;17.28;35.98;102975.91;4969968;28;20090;-68
2024/01/28 04:29:21;;;;;;;6.70;3.33;;;;;;;17.28;36.29;102969.81;4969261;28;20042;-70
2024/01/28 04:31:46;;;;;;;7.45;3.40;;;;;;;17.20;36.26;102939.34;4969163;28;20086;-69
2024/01/28 04:34:11;;;;;;;6.85;3.30;;;;;;;17.33;36.18;102970.44;4969302;28;20045;-70
2024/01/28 04:36:37;;;;;;;6.07;3.33;;;;;;;17.31;36.15;102956.50;4967596;28;20057;-71
2024/01/28 04:39:02;;;;;;;6.63;3.63;;;;;;;17.28;36.16;102951.34;4969370;28;20126;-70
2024/01/28 04:41:28;;;;;;;5.88;3.30;;;;;;;17.23;36.12;102933.09;4969219;28;20039;-69
2024/01/28 04:43:54;;;;;;;6.80;3.20;;;;;;;17.36;36.32;102965.03;4969337;28;20056;-69
2024/01/28 04:46:19;;;;;;;6.45;3.30;;;;;;;17.28;35.74;102957.47;4969288;28;20486;-69
2024/01/28 04:48:45;;;;;;;6.03;3.13;;;;;;;17.33;35.86;102968.66;4969147;28;20038;-70
2024/01/28 04:51:10;;;;;;;5.90;3.22;;;;;;;17.36;36.01;102972.94;4968985;28;20391;-70
2024/01/28 04:53:36;;;;;;;6.65;3.50;;;;;;;17.36;35.84;102962.41;4968952;28;20031;-71
2024/01/28 04:56:02;;;;;;;6.05;2.88;;;;;;;17.34;35.43;102951.06;4968551;28;20058;-69
2024/01/28 04:58:27;;;;;;;6.20;3.33;;;;;;;17.23;35.80;102933.09;4968292;28;20499;-70
2024/01/28 05:00:54;;;;;;;7.10;3.30;;;;;;;17.34;35.55;102958.97;4968289;28;20125;-70
2024/01/28 05:03:19;;;;;;;6.15;3.42;;;;;;;17.30;35.87;102955.59;4966521;28;20035;-71
2024/01/28 05:05:45;;;;;;;6.13;3.13;;;;;;;17.26;35.67;102943.50;4968351;28;20077;-71
2024/01/28 05:08:10;;;;;;;6.57;3.30;;;;;;;17.19;35.84;102937.63;4968485;28;20061;-70
2024/01/28 05:10:35;;;;;;;5.47;3.10;;;;;;;17.31;35.56;102967.88;4968390;28;20468;-69
2024/01/28 05:13:01;;;;;;;6.68;3.10;;;;;;;17.27;35.85;102954.91;4968980;28;20038;-67
2024/01/28 05:15:26;;;;;;;6.07;3.20;;;;;;;17.26;36.14;102959.31;4968822;28;20038;-69
2024/01/28 05:17:51;;;;;;;6.13;3.15;;;;;;;17.14;36.11;102933.50;4968559;28;20031;-68
2024/01/28 05:20:17;;;;;;;6.57;3.22;;;;;;;17.26;35.68;102951.41;4968765;28;20093;-68
2024/01/28 05:22:43;;;;;;;6.43;3.25;;;;;;;17.20;36.26;102944.63;4967577;28;20030;-69
2024/01/28 05:25:09;;;;;;;6.57;3.40;;;;;;;17.15;36.29;102929.97;4968579;28;20035;-70
2024/01/28 05:27:35;;;;;;;6.25;3.28;;;;;;;17.26;36.35;102937.38;4967854;28;20114;-70
2024/01/28 05:30:01;;;;;;;7.30;3.30;;;;;;;17.25;36.11;102941.78;4966275;28;20038;-69
2024/01/28 05:32:26;;;;;;;7.78;3.08;;;;;;;17.16;36.18;102924.59;4966192;28;20023;-70
2024/01/28 05:34:52;;;;;;;5.25;2.90;;;;;;;17.23;36.42;102930.47;4967968;28;20368;-70
2024/01/28 05:37:17;;;;;;;5.43;2.80;;;;;;;17.26;36.93;102927.69;4968098;28;20407;-70
2024/01/28 05:39:42;;;;;;;5.53;2.72;;;;;;;17.28;36.89;102912.66;4967998;28;20516;-69
2024/01/28 05:42:08;;;;;;;6.70;2.78;;;;;;;17.23;37.76;102896.22;4967829;28;20046;-70
2024/01/28 05:44:33;;;;;;;5.57;2.58;;;;;;;17.28;38.16;102896.00;4967871;28;20031;-69
2024/01/28 05:46:58;;;;;;;5.53;2.35;;;;;;;17.33;38.19;102886.94;4965497;28;20471;-68
2024/01/28 05:49:24;;;;;;;4.55;2.28;;;;;;;17.50;38.71;102915.19;4967474;28;20082;-69
2024/01/28 05:51:49;;;;;;;4.93;2.38;;;;;;;17.45;38.35;102896.09;4967697;28;20058;-69
2024/01/28 05:54:14;;;;;;;5.15;2.30;;;;;;;17.46;38.71;102887.25;4968208;28;20035;-69
2024/01/28 05:56:40;;;;;;;5.35;2.55;;;;;;;17.62;38.83;102910.25;4967798;28;20109;-68
2024/01/28 05:59:05;;;;;;;4.78;2.10;;;;;;;17.54;38.86;102890.38;4968025;28;20057;-69
2024/01/28 06:01:30;;;;;;;5.80;2.50;;;;;;;17.65;38.73;102889.88;4967678;28;20027;-70
2024/01/28 06:03:55;;;;;;;6.50;2.97;;;;;;;17.64;38.93;102880.28;4965673;28;20137;-69
2024/01/28 06:06:21;;;;;;;4.63;2.30;;;;;;;17.65;38.60;102878.50;4968184;28;20122;-70
2024/01/28 06:08:46;;;;;;;5.63;2.50;;;;;;;17.63;38.66;102868.00;4967843;28;20038;-69
2024/01/28 06:11:11;;;;;;;6.47;2.70;;;;;;;17.73;38.74;102879.81;4967547;28;20307;-68
2024/01/28 06:13:36;;;;;;;5.25;2.22;;;;;;;17.68;38.89;102868.63;4967899;28;20303;-69
2024/01/28 06:16:02;;;;;;;6.82;2.17;;;;;;;17.67;38.87;102859.00;4967669;28;20483;-69
2024/01/28 06:18:27;;;;;;;5.95;2.47;;;;;;;17.73;38.47;102868.44;4967797;28;20057;-69
2024/01/28 06:20:53;;;;;;;5.63;2.33;;;;;;;17.71;38.75;102863.22;4967769;28;20054;-70
2024/01/28 06:23:18;;;;;;;4.10;2.10;;;;;;;17.72;38.75;102857.03;4967961;28;20118;-68
2024/01/28 06:25:43;;;;;;;5.22;2.30;;;;;;;17.81;38.62;102861.00;4967690;28;20416;-69
2024/01/28 06:28:09;;;;;;;4.97;2.20;;;;;;;17.86;38.86;102874.81;4967248;28;20118;-68
2024/01/28 06:30:35;;;;;;;6.32;2.40;;;;;;;17.83;38.84;102867.06;4967119;28;20464;-68
2024/01/28 06:33:02;;;;;;;6.35;2.45;;;;;;;17.89;38.97;102874.69;4967354;28;20430;-69
2024/01/28 06:35:28;;;;;;;4.78;2.30;;;;;;;17.78;38.93;102853.22;4967262;28;20023;-70
2024/01/28 06:37:54;;;;;;;5.50;2.33;;;;;;;17.92;39.20;102874.53;4967116;28;20407;-71
2024/01/28 06:40:19;;;;;;;4.72;2.00;;;;;;;17.83;38.88;102855.66;4967645;28;20042;-68
2024/01/28 06:42:45;;;;;;;5.60;2.28;;;;;;;17.88;38.97;102851.03;4969576;28;20057;-69
2024/01/28 06:45:10;;;;;;;6.05;2.22;;;;;;;17.95;39.24;102858.56;4970577;28;20065;-70
2024/01/28 06:47:35;;;;;;;4.70;2.40;;;;;;;17.85;38.96;102846.75;4971125;28;20046;-70
2024/01/28 06:50:01;;;;;;;4.47;1.90;;;;;;;17.91;39.19;102856.16;4971301;28;20410;-69
2024/01/28 06:52:26;;;;;;;6.05;2.22;;;;;;;17.87;39.24;102844.88;4971391;28;20084;-69
2024/01/28 06:54:52;;;;;;;4.93;2.05;;;;;;;17.88;39.41;102843.13;4971707;28;20041;-70
2024/01/28 06:57:19;;;;;;;5.18;2.15;;;;;;;18.01;39.41;102867.09;4971517;28;20070;-69
2024/01/28 06:59:45;;;;;;;5.00;2.00;;;;;;;18.00;39.56;102857.50;4971569;28;20058;-70
2024/01/28 07:02:11;;;;;;;4.72;1.88;;;;;;;18.03;39.33;102860.84;4969679;28;20081;-68
2024/01/28 07:04:36;;;;;;;4.70;1.95;;;;;;;18.04;39.02;102861.69;4970830;28;20073;-70
2024/01/28 07:07:01;;;;;;;4.18;1.98;;;;;;;18.00;38.77;102854.88;4971363;28;20471;-70
2024/01/28 07:09:27;;;;;;;5.75;2.10;;;;;;;18.02;38.99;102855.63;4971448;28;20133;-69
2024/01/28 07:11:52;;;;;;;4.93;2.08;;;;;;;18.03;39.27;102860.00;4971511;28;20034;-70
2024/01/28 07:14:17;;;;;;;4.55;1.92;;;;;;;17.92;39.20;102850.81;4971051;28;20027;-70
2024/01/28 07:16:43;;;;;;;4.95;2.00;;;;;;;17.92;39.12;102839.41;4971490;28;20034;-71
2024/01/28 07:19:08;;;;;;;5.53;2.17;;;;;;;17.95;39.33;102853.31;4971139;28;20035;-70
2024/01/28 07:21:33;;;;;;;3.72;1.80;;;;;;;18.03;39.30;102860.84;4971716;28;20113;-69
2024/01/28 07:23:59;;;;;;;4.85;2.17;;;;;;;18.03;39.20;102860.84;4971592;28;20050;-69
2024/01/28 07:26:25;;;;;;;6.40;2.10;;;;;;;18.06;39.47;102857.22;4970938;28;20134;-69
2024/01/28 07:28:50;;;;;;;5.32;2.05;;;;;;;17.98;39.38;102843.53;4971342;28;20046;-69
2024/01/28 07:31:16;;;;;;;4.50;1.77;;;;;;;18.09;39.51;102859.69;4971180;28;20456;-69
2024/01/28 07:33:41;;;;;;;5.07;1.90;;;;;;;18.04;39.36;102830.03;4971243;28;20114;-68
2024/01/28 07:36:06;;;;;;;4.60;1.85;;;;;;;18.10;39.58;102846.44;4971083;28;20078;-70
2024/01/28 07:38:33;;;;;;;3.90;1.70;;;;;;;18.12;39.34;102851.63;4970961;28;20439;-68
2024/01/28 07:40:59;;;;;;;5.35;2.38;;;;;;;18.07;39.45;102836.03;4971409;28;20478;-69
2024/01/28 07:43:24;;;;;;;4.43;2.10;;;;;;;18.09;39.45;102843.88;4971056;28;20026;-69
2024/01/28 07:45:50;;;;;;;4.72;1.77;;;;;;;18.00;39.29;102820.56;4971118;28;20544;-70
2024/01/28 07:48:16;;;;;;;5.82;2.15;;;;;;;18.03;39.18;102829.19;4971134;28;20063;-70
2024/01/28 07:50:42;;;;;;;5.53;2.03;;;;;;;18.14;39.43;102852.41;4971165;28;20073;-69
2024/01/28 07:53:07;;;;;;;4.95;1.90;;;;;;;18.04;39.31;102832.66;4970680;28;20066;-70
2024/01/28 07:55:32;;;;;;;4.72;1.95;;;;;;;18.03;39.40;102831.81;4970620;28;20483;-69
2024/01/28 07:57:58;;;;;;;4.45;1.80;;;;;;;18.02;39.42;102829.25;4971148;28;20395;-69
2024/01/28 08:00:23;;;;;;;4.43;1.73;;;;;;;18.12;39.25;102838.44;4970743;28;20030;-70
2024/01/28 08:02:48;;;;;;;4.55;1.80;;;;;;;18.10;39.55;102830.59;4968324;28;20484;-71
2024/01/28 08:05:14;;;;;;;4.97;2.20;;;;;;;18.17;38.99;102840.84;4970485;28;20055;-69
2024/01/28 08:07:40;;;;;;;4.88;2.00;;;;;;;18.14;39.21;102836.56;4970975;28;20030;-69
2024/01/28 08:10:06;;;;;;;4.38;2.00;;;;;;;18.16;39.29;102839.13;4970385;28;20030;-69
2024/01/28 08:12:31;;;;;;;5.05;2.00;;;;;;;18.01;39.53;102825.78;4969961;28;20361;-70
2024/01/28 08:14:57;;;;;;;4.28;1.70;;;;;;;18.13;39.33;102846.28;4970549;28;20031;-68
2024/01/28 08:17:22;;;;;;;4.53;2.10;;;;;;;18.06;39.76;102831.66;4968517;28;20061;-68
2024/01/28 08:19:47;;;;;;;6.05;1.90;;;;;;;18.02;39.86;102816.91;4970005;28;20031;-68
2024/01/28 08:22:12;;;;;;;5.03;1.90;;;;;;;17.98;39.84;102799.53;4969812;28;21063;-68
2024/01/28 08:24:38;;;;;;;7.22;2.08;;;;;;;18.03;39.93;102810.72;4970274;28;20269;-70
2024/01/28 08:27:04;;;;;;;4.65;1.88;;;;;;;18.00;40.07;102797.66;4971878;28;20109;-74
2024/01/28 08:29:29;;;;;;;5.95;2.03;;;;;;;18.11;39.94;102815.63;4972970;28;20056;-75
2024/01/28 08:31:54;;;;;;;5.90;2.25;;;;;;;18.15;40.25;102825.09;4973138;28;20399;-69
2024/01/28 08:34:20;;;;;;;4.45;1.77;;;;;;;18.13;40.22;102813.75;4971539;28;20027;-69
2024/01/28 08:36:45;;;;;;;5.15;2.10;;;;;;;18.04;40.52;102801.88;4970818;28;20075;-68
2024/01/28 08:39:14;;;;;;;3.17;1.60;;;;;;;18.11;40.64;102805.91;4970566;28;20027;-69
2024/01/28 08:41:39;;;;;;;4.45;1.83;;;;;;;18.13;40.77;102811.09;4970020;28;20388;-71
2024/01/28 08:44:05;;;;;;;6.75;1.83;;;;;;;18.08;40.80;102800.78;4969597;28;20039;-68
2024/01/28 08:46:30;;;;;;;5.93;1.90;;;;;;;18.17;40.34;102807.38;4969096;28;20459;-68
2024/01/28 08:48:56;;;;;;;5.70;2.00;;;;;;;18.17;40.71;102811.81;4968951;28;20076;-69
2024/01/28 08:51:21;;;;;;;5.25;2.13;;;;;;;18.00;40.74;102770.44;4969121;28;20420;-67
2024/01/28 08:53:46;;;;;;;5.47;2.30;;;;;;;18.20;41.14;102803.72;4965406;28;20133;-68
2024/01/28 08:56:11;;;;;;;4.35;1.90;;;;;;;18.17;41.21;102803.91;4968520;28;20276;-68
2024/01/28 08:58:37;;;;;;;4.85;1.80;;;;;;;18.10;41.27;102791.03;4965491;28;20042;-70
2024/01/28 09:01:03;;;;;;;4.20;1.98;;;;;;;18.20;41.31;102811.63;4967451;28;20614;-67
2024/01/28 09:03:28;;;;;;;5.32;1.95;;;;;;;18.22;41.17;102807.16;4964867;28;20045;-69
2024/01/28 09:05:54;;;;;;;5.43;1.88;;;;;;;18.22;41.35;102808.00;4967186;28;20114;-69
2024/01/28 09:08:19;;;;;;;3.83;1.75;;;;;;;18.11;41.66;102792.72;4967239;28;20031;-68
2024/01/28 09:10:44;;;;;;;6.03;2.10;;;;;;;18.23;41.82;102800.94;4965708;28;20038;-67
2024/01/28 09:13:09;;;;;;;6.63;2.00;;;;;;;18.14;41.46;102789.06;4967115;28;20034;-68
2024/01/28 09:15:35;;;;;;;6.35;2.03;;;;;;;18.21;41.67;102801.00;4968215;28;20030;-69
2024/01/28 09:18:00;;;;;;;4.40;1.67;;;;;;;18.16;41.58;102797.75;4967902;28;20030;-68
2024/01/28 09:20:25;;;;;;;5.47;1.88;;;;;;;18.08;41.81;102773.53;4968129;28;20614;-69
2024/01/28 09:22:51;;;;;;;4.43;1.90;;;;;;;18.12;41.56;102777.75;4967813;28;20030;-68
2024/01/28 09:25:16;;;;;;;5.90;2.10;;;;;;;18.11;41.42;102771.59;4967858;28;20035;-67
2024/01/28 09:27:43;;;;;;;4.65;1.67;;;;;;;18.22;41.45;102788.69;4967395;28;20045;-69
2024/01/28 09:30:10;;;;;;;8.50;2.40;;;;;;;18.19;41.90;102779.13;4967722;28;20031;-68
2024/01/28 09:32:35;;;;;;;4.30;1.83;;;;;;;18.18;41.97;102782.69;4967851;28;20063;-67
2024/01/28 09:35:00;;;;;;;5.85;1.77;;;;;;;18.16;42.10;102775.81;4968118;28;20105;-68
2024/01/28 09:37:26;;;;;;;4.53;2.05;;;;;;;18.20;41.96;102779.97;4967580;28;20059;-67
2024/01/28 09:39:51;;;;;;;4.38;1.60;;;;;;;18.16;42.18;102774.00;4967899;28;20045;-68
2024/01/28 09:42:19;;;;;;;5.70;1.85;;;;;;;18.26;42.56;102784.94;4966170;28;20027;-68
2024/01/28 09:44:45;;;;;;;5.47;2.13;;;;;;;18.24;42.19;102785.03;4968267;28;20073;-67
2024/01/28 09:47:11;;;;;;;5.50;1.90;;;;;;;18.28;42.33;102780.47;4967852;28;20110;-67
2024/01/28 09:49:41;;;;;;;4.68;1.98;;;;;;;18.21;42.48;102768.50;4967900;28;20027;-68
2024/01/28 09:52:11;;;;;;;5.15;1.63;;;;;;;18.19;42.89;102771.22;4967969;28;20027;-68
2024/01/28 09:54:41;;;;;;;4.68;1.80;;;;;;;18.18;42.80;102760.72;4968021;28;20452;-69
2024/01/28 09:57:08;;;;;;;4.15;1.90;;;;;;;18.19;42.68;102759.81;4967521;28;20033;-69
2024/01/28 09:59:36;;;;;;;3.53;1.42;;;;;;;18.21;42.83;102757.94;4967374;28;20031;-67
2024/01/28 10:02:04;;;;;;;3.05;1.40;;;;;;;18.19;42.79;102750.09;4964408;28;20039;-70
2024/01/28 10:04:30;;;;;;;4.10;1.60;;;;;;;18.31;42.64;102765.31;4962067;28;20038;-69
2024/01/28 10:06:59;;;;;;;4.97;1.90;;;;;;;18.33;42.91;102770.50;4966843;28;20103;-68
2024/01/28 10:09:29;;;;;;;4.95;1.50;;;;;;;18.29;42.78;102761.91;4967428;28;20084;-69
2024/01/28 10:11:58;;;;;;;3.97;1.67;;;;;;;18.30;42.68;102753.03;4967468;28;20031;-70
2024/01/28 10:14:23;;;;;;;3.00;1.33;;;;;;;18.34;42.83;102763.44;4967545;28;20034;-68
2024/01/28 10:16:49;;;;;;;4.85;1.90;;;;;;;18.20;42.49;102735.09;4969257;28;20518;-69
2024/01/28 10:19:14;;;;;;;4.70;1.80;;;;;;;18.13;42.84;102729.31;4973825;28;20118;-67
2024/01/28 10:21:43;;;;;;;3.88;1.70;;;;;;;18.22;42.87;102738.53;4973506;28;20162;-68
2024/01/28 10:24:10;;;;;;;5.47;1.73;;;;;;;18.33;42.90;102749.38;4973572;28;20038;-69
2024/01/28 10:26:35;;;;;;;5.10;1.98;;;;;;;18.33;42.58;102744.13;4973448;28;20125;-69
2024/01/28 10:29:00;;;;;;;6.43;1.83;;;;;;;18.34;42.74;102753.75;4973765;28;20085;-67
2024/01/28 10:31:26;;;;;;;6.15;1.88;;;;;;;18.28;42.82;102746.16;4974018;28;20436;-68
2024/01/28 10:33:51;;;;;;;4.30;1.58;;;;;;;18.21;43.13;102727.09;4973951;28;20031;-68
2024/01/28 10:36:17;;;;;;;4.40;1.42;;;;;;;18.22;42.97;102725.34;4970410;28;20055;-68
2024/01/28 10:38:45;;;;;;;5.68;1.60;;;;;;;18.21;42.87;102726.28;4973882;28;20113;-68
2024/01/28 10:41:15;;;;;;;4.28;1.35;;;;;;;18.26;42.84;102730.38;4973163;28;20038;-68
2024/01/28 10:43:52;;;;;;;5.20;1.77;;;;;;;18.26;42.52;102726.88;4973119;28;20916;-69
2024/01/28 10:46:25;;;;;;;7.18;1.88;;;;;;;18.36;42.21;102737.81;4973519;28;20114;-70
2024/01/28 10:48:53;;;;;;;4.72;1.70;;;;;;;18.32;42.44;102737.13;4973967;28;20034;-68
2024/01/28 10:51:20;;;;;;;4.55;1.67;;;;;;;18.26;42.53;102722.47;4973385;28;20030;-65
2024/01/28 10:53:46;;;;;;;4.93;1.80;;;;;;;18.33;42.85;102730.06;4972707;28;20027;-65
2024/01/28 10:56:12;;;;;;;3.33;1.60;;;;;;;18.22;42.90;102713.00;4973303;28;20019;-66
2024/01/28 10:58:39;;;;;;;4.47;1.42;;;;;;;18.37;42.76;102728.97;4972224;28;20027;-68
2024/01/28 11:01:07;;;;;;;3.80;1.50;;;;;;;18.30;42.69;102709.97;4970596;28;20034;-69
2024/01/28 11:03:33;;;;;;;4.85;1.60;;;;;;;18.31;42.86;102711.69;4967745;28;20081;-69
2024/01/28 11:06:00;;;;;;;3.30;1.42;;;;;;;18.33;42.93;102707.16;4971909;28;20399;-68
2024/01/28 11:08:26;;;;;;;4.55;1.75;;;;;;;18.34;42.70;102708.88;4971726;28;20510;-69
2024/01/28 11:10:52;;;;;;;4.38;1.83;;;;;;;18.27;43.18;102691.63;4972129;28;20484;-68
2024/01/28 11:13:18;;;;;;;3.72;1.35;;;;;;;18.37;43.18;102702.56;4972744;28;20038;-68
2024/01/28 11:15:45;;;;;;;6.53;1.85;;;;;;;18.39;42.95;102696.28;4972444;28;20039;-68
2024/01/28 11:18:10;;;;;;;4.68;1.48;;;;;;;18.41;43.02;102701.47;4973624;28;20495;-72